sensor_id;sensor_type;location;lat;lon;timestamp;temperature;humidity
34153;DHT22;20426;48.372;10.888;2023-03-22T00:00:03;11.40;99.90
34153;DHT22;20426;48.372;10.888;2023-03-22T00:00:36;11.40;99.90
34153;DHT22;20426;48.372;10.888;2023-03-22T00:01:10;11.40;99.90
34153;DHT22;20426;48.372;10.888;2023-03-22T00:01:41;11.40;99.90
34153;DHT22;20426;48.372;10.888;2023-03-22T00:02:12;11.40;99.90
34153;DHT22;20426;48.372;10.888;2023-03-22T00:02:43;11.40;99.90
34153;DHT22;20426;48.372;10.888;2023-03-22T00:03:14;11.40;99.90
34153;DHT22;20426;48.372;10.888;2023-03-22T00:03:45;11.40;99.90
34153;DHT22;20426;48.372;10.888;2023-03-22T00:04:16;11.40;99.90
34153;DHT22;20426;48.372;10.888;2023-03-22T00:04:47;11.40;99.90
34153;DHT22;20426;48.372;10.888;2023-03-22T00:05:18;11.40;99.90
34153;DHT22;20426;48.372;10.888;2023-03-22T00:05:54;11.40;99.90
34153;DHT22;20426;48.372;10.888;2023-03-22T00:06:26;11.40;99.90
34153;DHT22;20426;48.372;10.888;2023-03-22T00:06:56;11.40;99.90
34153;DHT22;20426;48.372;10.888;2023-03-22T00:07:27;11.40;99.90
34153;DHT22;20426;48.372;10.888;2023-03-22T00:07:58;11.40;99.90
34153;DHT22;20426;48.372;10.888;2023-03-22T00:08:29;11.40;99.90
34153;DHT22;20426;48.372;10.888;2023-03-22T00:08:59;11.40;99.90
34153;DHT22;20426;48.372;10.888;2023-03-22T00:09:30;11.40;99.90
34153;DHT22;20426;48.372;10.888;2023-03-22T00:10:01;11.40;99.90
34153;DHT22;20426;48.372;10.888;2023-03-22T00:10:33;11.40;99.90
34153;DHT22;20426;48.372;10.888;2023-03-22T00:11:05;11.40;99.90
34153;DHT22;20426;48.372;10.888;2023-03-22T00:11:36;11.40;99.90
34153;DHT22;20426;48.372;10.888;2023-03-22T00:12:06;11.40;99.90
34153;DHT22;20426;48.372;10.888;2023-03-22T00:12:37;11.40;99.90
34153;DHT22;20426;48.372;10.888;2023-03-22T00:13:09;11.40;99.90
34153;DHT22;20426;48.372;10.888;2023-03-22T00:13:40;11.40;99.90
34153;DHT22;20426;48.372;10.888;2023-03-22T00:14:12;11.40;99.90
34153;DHT22;20426;48.372;10.888;2023-03-22T00:14:43;11.40;99.90
34153;DHT22;20426;48.372;10.888;2023-03-22T00:15:14;11.40;99.90
34153;DHT22;20426;48.372;10.888;2023-03-22T00:15:45;11.40;99.90
34153;DHT22;20426;48.372;10.888;2023-03-22T00:16:19;11.40;99.90
34153;DHT22;20426;48.372;10.888;2023-03-22T00:16:50;11.30;99.90
34153;DHT22;20426;48.372;10.888;2023-03-22T00:17:21;11.30;99.90
34153;DHT22;20426;48.372;10.888;2023-03-22T00:17:52;11.40;99.90
34153;DHT22;20426;48.372;10.888;2023-03-22T00:18:23;11.40;99.90
34153;DHT22;20426;48.372;10.888;2023-03-22T00:18:53;11.40;99.90
34153;DHT22;20426;48.372;10.888;2023-03-22T00:19:24;11.40;99.90
34153;DHT22;20426;48.372;10.888;2023-03-22T00:19:56;11.40;99.90
34153;DHT22;20426;48.372;10.888;2023-03-22T00:20:28;11.40;99.90
34153;DHT22;20426;48.372;10.888;2023-03-22T00:21:12;11.40;99.90
34153;DHT22;20426;48.372;10.888;2023-03-22T00:21:44;11.40;99.90
34153;DHT22;20426;48.372;10.888;2023-03-22T00:22:15;11.40;99.90
34153;DHT22;20426;48.372;10.888;2023-03-22T00:22:46;11.40;99.90
34153;DHT22;20426;48.372;10.888;2023-03-22T00:23:17;11.40;99.90
34153;DHT22;20426;48.372;10.888;2023-03-22T00:23:48;11.40;99.90
34153;DHT22;20426;48.372;10.888;2023-03-22T00:24:18;11.40;99.90
34153;DHT22;20426;48.372;10.888;2023-03-22T00:24:50;11.40;99.90
34153;DHT22;20426;48.372;10.888;2023-03-22T00:25:21;11.40;99.90
34153;DHT22;20426;48.372;10.888;2023-03-22T00:25:52;11.40;99.90
34153;DHT22;20426;48.372;10.888;2023-03-22T00:26:22;11.30;99.90
34153;DHT22;20426;48.372;10.888;2023-03-22T00:26:53;11.30;99.90
34153;DHT22;20426;48.372;10.888;2023-03-22T00:27:24;11.30;99.90
34153;DHT22;20426;48.372;10.888;2023-03-22T00:27:55;11.30;99.90
34153;DHT22;20426;48.372;10.888;2023-03-22T00:28:25;11.30;99.90
34153;DHT22;20426;48.372;10.888;2023-03-22T00:28:56;11.30;99.90
34153;DHT22;20426;48.372;10.888;2023-03-22T00:29:27;11.30;99.90
34153;DHT22;20426;48.372;10.888;2023-03-22T00:29:58;11.30;99.90
34153;DHT22;20426;48.372;10.888;2023-03-22T00:30:29;11.30;99.90
34153;DHT22;20426;48.372;10.888;2023-03-22T00:31:01;11.30;99.90
34153;DHT22;20426;48.372;10.888;2023-03-22T00:31:32;11.30;99.90
34153;DHT22;20426;48.372;10.888;2023-03-22T00:32:02;11.30;99.90
34153;DHT22;20426;48.372;10.888;2023-03-22T00:32:35;11.30;99.90
34153;DHT22;20426;48.372;10.888;2023-03-22T00:33:06;11.30;99.90
34153;DHT22;20426;48.372;10.888;2023-03-22T00:33:36;11.30;99.90
34153;DHT22;20426;48.372;10.888;2023-03-22T00:34:07;11.30;99.90
34153;DHT22;20426;48.372;10.888;2023-03-22T00:34:38;11.30;99.90
34153;DHT22;20426;48.372;10.888;2023-03-22T00:35:09;11.30;99.90
34153;DHT22;20426;48.372;10.888;2023-03-22T00:35:47;11.30;99.90
34153;DHT22;20426;48.372;10.888;2023-03-22T00:36:18;11.30;99.90
34153;DHT22;20426;48.372;10.888;2023-03-22T00:36:49;11.30;99.90
34153;DHT22;20426;48.372;10.888;2023-03-22T00:37:21;11.30;99.90
34153;DHT22;20426;48.372;10.888;2023-03-22T00:37:51;11.30;99.90
34153;DHT22;20426;48.372;10.888;2023-03-22T00:38:22;11.20;99.90
34153;DHT22;20426;48.372;10.888;2023-03-22T00:38:53;11.30;99.90
34153;DHT22;20426;48.372;10.888;2023-03-22T00:39:24;11.20;99.90
34153;DHT22;20426;48.372;10.888;2023-03-22T00:39:56;11.20;99.90
34153;DHT22;20426;48.372;10.888;2023-03-22T00:40:27;11.30;99.90
34153;DHT22;20426;48.372;10.888;2023-03-22T00:41:10;11.30;99.90
34153;DHT22;20426;48.372;10.888;2023-03-22T00:41:41;11.20;99.90
34153;DHT22;20426;48.372;10.888;2023-03-22T00:42:12;11.30;99.90
34153;DHT22;20426;48.372;10.888;2023-03-22T00:42:43;11.30;99.90
34153;DHT22;20426;48.372;10.888;2023-03-22T00:43:14;11.30;99.90
34153;DHT22;20426;48.372;10.888;2023-03-22T00:43:46;11.30;99.90
34153;DHT22;20426;48.372;10.888;2023-03-22T00:44:17;11.30;99.90
34153;DHT22;20426;48.372;10.888;2023-03-22T00:44:48;11.30;99.90
34153;DHT22;20426;48.372;10.888;2023-03-22T00:45:19;11.30;99.90
34153;DHT22;20426;48.372;10.888;2023-03-22T00:45:49;11.30;99.90
34153;DHT22;20426;48.372;10.888;2023-03-22T00:46:20;11.30;99.90
34153;DHT22;20426;48.372;10.888;2023-03-22T00:46:51;11.30;99.90
34153;DHT22;20426;48.372;10.888;2023-03-22T00:47:22;11.30;99.90
34153;DHT22;20426;48.372;10.888;2023-03-22T00:47:53;11.20;99.90
34153;DHT22;20426;48.372;10.888;2023-03-22T00:48:23;11.20;99.90
34153;DHT22;20426;48.372;10.888;2023-03-22T00:48:54;11.20;99.90
34153;DHT22;20426;48.372;10.888;2023-03-22T00:49:25;11.20;99.90
34153;DHT22;20426;48.372;10.888;2023-03-22T00:49:56;11.20;99.90
34153;DHT22;20426;48.372;10.888;2023-03-22T00:50:27;11.20;99.90
34153;DHT22;20426;48.372;10.888;2023-03-22T00:50:58;11.20;99.90
34153;DHT22;20426;48.372;10.888;2023-03-22T00:51:28;11.20;99.90
34153;DHT22;20426;48.372;10.888;2023-03-22T00:51:59;11.20;99.90
34153;DHT22;20426;48.372;10.888;2023-03-22T00:52:30;11.20;99.90
34153;DHT22;20426;48.372;10.888;2023-03-22T00:53:01;11.20;99.90
34153;DHT22;20426;48.372;10.888;2023-03-22T00:53:32;11.20;99.90
34153;DHT22;20426;48.372;10.888;2023-03-22T00:54:02;11.30;99.90
34153;DHT22;20426;48.372;10.888;2023-03-22T00:54:33;11.30;99.90
34153;DHT22;20426;48.372;10.888;2023-03-22T00:55:04;11.30;99.90
34153;DHT22;20426;48.372;10.888;2023-03-22T00:55:35;11.30;99.90
34153;DHT22;20426;48.372;10.888;2023-03-22T00:56:07;11.30;99.90
34153;DHT22;20426;48.372;10.888;2023-03-22T00:56:37;11.30;99.90
34153;DHT22;20426;48.372;10.888;2023-03-22T00:57:08;11.20;99.90
34153;DHT22;20426;48.372;10.888;2023-03-22T00:57:39;11.30;99.90
34153;DHT22;20426;48.372;10.888;2023-03-22T00:58:10;11.30;99.90
34153;DHT22;20426;48.372;10.888;2023-03-22T00:58:41;11.20;99.90
34153;DHT22;20426;48.372;10.888;2023-03-22T00:59:12;11.30;99.90
34153;DHT22;20426;48.372;10.888;2023-03-22T00:59:44;11.20;99.90
34153;DHT22;20426;48.372;10.888;2023-03-22T01:00:15;11.20;99.90
34153;DHT22;20426;48.372;10.888;2023-03-22T01:00:46;11.20;99.90
34153;DHT22;20426;48.372;10.888;2023-03-22T01:01:17;11.20;99.90
34153;DHT22;20426;48.372;10.888;2023-03-22T01:01:48;11.20;99.90
34153;DHT22;20426;48.372;10.888;2023-03-22T01:02:18;11.20;99.90
34153;DHT22;20426;48.372;10.888;2023-03-22T01:02:49;11.20;99.90
34153;DHT22;20426;48.372;10.888;2023-03-22T01:03:23;11.20;99.90
34153;DHT22;20426;48.372;10.888;2023-03-22T01:03:54;11.20;99.90
34153;DHT22;20426;48.372;10.888;2023-03-22T01:04:24;11.20;99.90
34153;DHT22;20426;48.372;10.888;2023-03-22T01:04:55;11.20;99.90
34153;DHT22;20426;48.372;10.888;2023-03-22T01:05:26;11.20;99.90
34153;DHT22;20426;48.372;10.888;2023-03-22T01:05:57;11.20;99.90
34153;DHT22;20426;48.372;10.888;2023-03-22T01:06:28;11.20;99.90
34153;DHT22;20426;48.372;10.888;2023-03-22T01:06:59;11.20;99.90
34153;DHT22;20426;48.372;10.888;2023-03-22T01:07:31;11.20;99.90
34153;DHT22;20426;48.372;10.888;2023-03-22T01:08:05;11.20;99.90
34153;DHT22;20426;48.372;10.888;2023-03-22T01:08:37;11.20;99.90
34153;DHT22;20426;48.372;10.888;2023-03-22T01:09:09;11.20;99.90
34153;DHT22;20426;48.372;10.888;2023-03-22T01:09:44;11.20;99.90
34153;DHT22;20426;48.372;10.888;2023-03-22T01:10:16;11.20;99.90
34153;DHT22;20426;48.372;10.888;2023-03-22T01:10:48;11.20;99.90
34153;DHT22;20426;48.372;10.888;2023-03-22T01:11:19;11.20;99.90
34153;DHT22;20426;48.372;10.888;2023-03-22T01:11:49;11.20;99.90
34153;DHT22;20426;48.372;10.888;2023-03-22T01:12:20;11.20;99.90
34153;DHT22;20426;48.372;10.888;2023-03-22T01:12:51;11.20;99.90
34153;DHT22;20426;48.372;10.888;2023-03-22T01:13:21;11.20;99.90
34153;DHT22;20426;48.372;10.888;2023-03-22T01:13:53;11.20;99.90
34153;DHT22;20426;48.372;10.888;2023-03-22T01:14:24;11.20;99.90
34153;DHT22;20426;48.372;10.888;2023-03-22T01:14:55;11.20;99.90
34153;DHT22;20426;48.372;10.888;2023-03-22T01:15:26;11.20;99.90
34153;DHT22;20426;48.372;10.888;2023-03-22T01:15:57;11.30;99.90
34153;DHT22;20426;48.372;10.888;2023-03-22T01:16:27;11.20;99.90
34153;DHT22;20426;48.372;10.888;2023-03-22T01:16:58;11.20;99.90
34153;DHT22;20426;48.372;10.888;2023-03-22T01:17:29;11.20;99.90
34153;DHT22;20426;48.372;10.888;2023-03-22T01:18:00;11.30;99.90
34153;DHT22;20426;48.372;10.888;2023-03-22T01:18:31;11.30;99.90
34153;DHT22;20426;48.372;10.888;2023-03-22T01:19:02;11.30;99.90
34153;DHT22;20426;48.372;10.888;2023-03-22T01:19:34;11.30;99.90
34153;DHT22;20426;48.372;10.888;2023-03-22T01:20:05;11.30;99.90
34153;DHT22;20426;48.372;10.888;2023-03-22T01:20:36;11.30;99.90
34153;DHT22;20426;48.372;10.888;2023-03-22T01:21:07;11.30;99.90
34153;DHT22;20426;48.372;10.888;2023-03-22T01:21:38;11.30;99.90
34153;DHT22;20426;48.372;10.888;2023-03-22T01:22:09;11.30;99.90
34153;DHT22;20426;48.372;10.888;2023-03-22T01:22:40;11.30;99.90
34153;DHT22;20426;48.372;10.888;2023-03-22T01:23:10;11.30;99.90
34153;DHT22;20426;48.372;10.888;2023-03-22T01:23:41;11.30;99.90
34153;DHT22;20426;48.372;10.888;2023-03-22T01:24:12;11.30;99.90
34153;DHT22;20426;48.372;10.888;2023-03-22T01:24:42;11.30;99.90
34153;DHT22;20426;48.372;10.888;2023-03-22T01:25:13;11.30;99.90
34153;DHT22;20426;48.372;10.888;2023-03-22T01:25:44;11.30;99.90
34153;DHT22;20426;48.372;10.888;2023-03-22T01:26:16;11.30;99.90
34153;DHT22;20426;48.372;10.888;2023-03-22T01:26:46;11.30;99.90
34153;DHT22;20426;48.372;10.888;2023-03-22T01:27:17;11.20;99.90
34153;DHT22;20426;48.372;10.888;2023-03-22T01:27:48;11.30;99.90
34153;DHT22;20426;48.372;10.888;2023-03-22T01:28:18;11.20;99.90
34153;DHT22;20426;48.372;10.888;2023-03-22T01:28:49;11.20;99.90
34153;DHT22;20426;48.372;10.888;2023-03-22T01:29:20;11.20;99.90
34153;DHT22;20426;48.372;10.888;2023-03-22T01:29:51;11.30;99.90
34153;DHT22;20426;48.372;10.888;2023-03-22T01:30:22;11.30;99.90
34153;DHT22;20426;48.372;10.888;2023-03-22T01:30:53;11.30;99.90
34153;DHT22;20426;48.372;10.888;2023-03-22T01:31:23;11.30;99.90
34153;DHT22;20426;48.372;10.888;2023-03-22T01:31:54;11.30;99.90
34153;DHT22;20426;48.372;10.888;2023-03-22T01:32:25;11.20;99.90
34153;DHT22;20426;48.372;10.888;2023-03-22T01:32:56;11.20;99.90
34153;DHT22;20426;48.372;10.888;2023-03-22T01:33:27;11.20;99.90
34153;DHT22;20426;48.372;10.888;2023-03-22T01:33:57;11.20;99.90
34153;DHT22;20426;48.372;10.888;2023-03-22T01:34:28;11.20;99.90
34153;DHT22;20426;48.372;10.888;2023-03-22T01:35:00;11.20;99.90
34153;DHT22;20426;48.372;10.888;2023-03-22T01:35:31;11.20;99.90
34153;DHT22;20426;48.372;10.888;2023-03-22T01:36:03;11.20;99.90
34153;DHT22;20426;48.372;10.888;2023-03-22T01:36:33;11.10;99.90
34153;DHT22;20426;48.372;10.888;2023-03-22T01:37:05;11.10;99.90
34153;DHT22;20426;48.372;10.888;2023-03-22T01:37:36;11.10;99.90
34153;DHT22;20426;48.372;10.888;2023-03-22T01:38:07;11.10;99.90
34153;DHT22;20426;48.372;10.888;2023-03-22T01:38:37;11.10;99.90
34153;DHT22;20426;48.372;10.888;2023-03-22T01:39:08;11.10;99.90
34153;DHT22;20426;48.372;10.888;2023-03-22T01:39:39;11.20;99.90
34153;DHT22;20426;48.372;10.888;2023-03-22T01:40:12;11.20;99.90
34153;DHT22;20426;48.372;10.888;2023-03-22T01:40:43;11.20;99.90
34153;DHT22;20426;48.372;10.888;2023-03-22T01:41:16;11.20;99.90
34153;DHT22;20426;48.372;10.888;2023-03-22T01:41:46;11.20;99.90
34153;DHT22;20426;48.372;10.888;2023-03-22T01:42:17;11.20;99.90
34153;DHT22;20426;48.372;10.888;2023-03-22T01:42:52;11.20;99.90
34153;DHT22;20426;48.372;10.888;2023-03-22T01:43:22;11.20;99.90
34153;DHT22;20426;48.372;10.888;2023-03-22T01:44:09;11.20;99.90
34153;DHT22;20426;48.372;10.888;2023-03-22T01:44:43;11.20;99.90
34153;DHT22;20426;48.372;10.888;2023-03-22T01:46:07;11.20;99.90
34153;DHT22;20426;48.372;10.888;2023-03-22T01:46:39;11.10;99.90
34153;DHT22;20426;48.372;10.888;2023-03-22T01:47:10;11.10;99.90
34153;DHT22;20426;48.372;10.888;2023-03-22T01:47:50;11.10;99.90
34153;DHT22;20426;48.372;10.888;2023-03-22T01:48:37;11.10;99.90
34153;DHT22;20426;48.372;10.888;2023-03-22T01:49:48;11.10;99.90
34153;DHT22;20426;48.372;10.888;2023-03-22T01:50:13;11.10;99.90
34153;DHT22;20426;48.372;10.888;2023-03-22T01:50:48;11.00;99.90
34153;DHT22;20426;48.372;10.888;2023-03-22T01:51:23;11.00;99.90
34153;DHT22;20426;48.372;10.888;2023-03-22T01:51:57;11.00;99.90
34153;DHT22;20426;48.372;10.888;2023-03-22T01:52:30;11.00;99.90
34153;DHT22;20426;48.372;10.888;2023-03-22T01:53:01;10.90;99.90
34153;DHT22;20426;48.372;10.888;2023-03-22T01:53:43;10.90;99.90
34153;DHT22;20426;48.372;10.888;2023-03-22T01:54:20;10.90;99.90
34153;DHT22;20426;48.372;10.888;2023-03-22T01:54:54;10.90;99.90
34153;DHT22;20426;48.372;10.888;2023-03-22T01:55:26;10.90;99.90
34153;DHT22;20426;48.372;10.888;2023-03-22T01:55:57;10.90;99.90
34153;DHT22;20426;48.372;10.888;2023-03-22T01:56:31;10.90;99.90
34153;DHT22;20426;48.372;10.888;2023-03-22T01:57:03;10.90;99.90
34153;DHT22;20426;48.372;10.888;2023-03-22T01:57:35;10.90;99.90
34153;DHT22;20426;48.372;10.888;2023-03-22T01:58:09;10.90;99.90
34153;DHT22;20426;48.372;10.888;2023-03-22T01:58:40;10.90;99.90
34153;DHT22;20426;48.372;10.888;2023-03-22T01:59:13;10.90;99.90
34153;DHT22;20426;48.372;10.888;2023-03-22T01:59:45;10.90;99.90
34153;DHT22;20426;48.372;10.888;2023-03-22T02:00:16;10.90;99.90
34153;DHT22;20426;48.372;10.888;2023-03-22T02:00:49;10.90;99.90
34153;DHT22;20426;48.372;10.888;2023-03-22T02:01:22;10.90;99.90
34153;DHT22;20426;48.372;10.888;2023-03-22T02:01:53;10.90;99.90
34153;DHT22;20426;48.372;10.888;2023-03-22T02:02:24;11.00;99.90
34153;DHT22;20426;48.372;10.888;2023-03-22T02:02:54;11.00;99.90
34153;DHT22;20426;48.372;10.888;2023-03-22T02:04:15;11.00;99.90
34153;DHT22;20426;48.372;10.888;2023-03-22T02:04:50;11.00;99.90
34153;DHT22;20426;48.372;10.888;2023-03-22T02:05:27;11.00;99.90
34153;DHT22;20426;48.372;10.888;2023-03-22T02:05:59;11.00;99.90
34153;DHT22;20426;48.372;10.888;2023-03-22T02:06:30;11.00;99.90
34153;DHT22;20426;48.372;10.888;2023-03-22T02:07:05;10.90;99.90
34153;DHT22;20426;48.372;10.888;2023-03-22T02:07:41;11.00;99.90
34153;DHT22;20426;48.372;10.888;2023-03-22T02:08:12;11.00;99.90
34153;DHT22;20426;48.372;10.888;2023-03-22T02:08:44;11.00;99.90
34153;DHT22;20426;48.372;10.888;2023-03-22T02:09:15;11.00;99.90
34153;DHT22;20426;48.372;10.888;2023-03-22T02:09:47;10.90;99.90
34153;DHT22;20426;48.372;10.888;2023-03-22T02:10:22;10.90;99.90
34153;DHT22;20426;48.372;10.888;2023-03-22T02:10:53;10.90;99.90
34153;DHT22;20426;48.372;10.888;2023-03-22T02:11:29;10.90;99.90
34153;DHT22;20426;48.372;10.888;2023-03-22T02:15:37;11.00;99.90
34153;DHT22;20426;48.372;10.888;2023-03-22T02:16:28;11.00;99.90
34153;DHT22;20426;48.372;10.888;2023-03-22T02:17:26;11.00;99.90
34153;DHT22;20426;48.372;10.888;2023-03-22T02:24:33;11.00;99.90
34153;DHT22;20426;48.372;10.888;2023-03-22T02:25:35;11.00;99.90
34153;DHT22;20426;48.372;10.888;2023-03-22T02:26:29;11.00;99.90
34153;DHT22;20426;48.372;10.888;2023-03-22T02:29:11;10.90;99.90
34153;DHT22;20426;48.372;10.888;2023-03-22T02:30:19;10.90;99.90
34153;DHT22;20426;48.372;10.888;2023-03-22T02:31:18;10.90;99.90
34153;DHT22;20426;48.372;10.888;2023-03-22T02:35:35;10.90;99.90
34153;DHT22;20426;48.372;10.888;2023-03-22T02:39:52;10.90;99.90
34153;DHT22;20426;48.372;10.888;2023-03-22T02:41:57;10.90;99.90
34153;DHT22;20426;48.372;10.888;2023-03-22T02:43:02;10.90;99.90
34153;DHT22;20426;48.372;10.888;2023-03-22T02:44:42;10.90;99.90
34153;DHT22;20426;48.372;10.888;2023-03-22T02:46:04;10.90;99.90
34153;DHT22;20426;48.372;10.888;2023-03-22T02:47:21;10.80;99.90
34153;DHT22;20426;48.372;10.888;2023-03-22T02:50:49;10.80;99.90
34153;DHT22;20426;48.372;10.888;2023-03-22T02:52:07;10.80;99.90
34153;DHT22;20426;48.372;10.888;2023-03-22T02:52:18;10.80;99.90
34153;DHT22;20426;48.372;10.888;2023-03-22T02:53:39;10.80;99.90
34153;DHT22;20426;48.372;10.888;2023-03-22T02:55:43;10.80;99.90
34153;DHT22;20426;48.372;10.888;2023-03-22T02:56:19;10.80;99.90
34153;DHT22;20426;48.372;10.888;2023-03-22T02:57:01;10.80;99.90
34153;DHT22;20426;48.372;10.888;2023-03-22T02:58:23;10.80;99.90
34153;DHT22;20426;48.372;10.888;2023-03-22T02:58:58;10.80;99.90
34153;DHT22;20426;48.372;10.888;2023-03-22T02:59:31;10.80;99.90
34153;DHT22;20426;48.372;10.888;2023-03-22T03:00:05;10.80;99.90
34153;DHT22;20426;48.372;10.888;2023-03-22T03:00:42;10.80;99.90
34153;DHT22;20426;48.372;10.888;2023-03-22T03:01:28;10.80;99.90
34153;DHT22;20426;48.372;10.888;2023-03-22T03:02:01;10.80;99.90
34153;DHT22;20426;48.372;10.888;2023-03-22T03:02:33;10.80;99.90
34153;DHT22;20426;48.372;10.888;2023-03-22T03:03:08;10.90;99.90
34153;DHT22;20426;48.372;10.888;2023-03-22T03:03:41;10.80;99.90
34153;DHT22;20426;48.372;10.888;2023-03-22T03:04:18;10.80;99.90
34153;DHT22;20426;48.372;10.888;2023-03-22T03:04:51;10.80;99.90
34153;DHT22;20426;48.372;10.888;2023-03-22T03:05:24;10.80;99.90
34153;DHT22;20426;48.372;10.888;2023-03-22T03:05:59;10.80;99.90
34153;DHT22;20426;48.372;10.888;2023-03-22T03:06:36;10.80;99.90
34153;DHT22;20426;48.372;10.888;2023-03-22T03:07:11;10.80;99.90
34153;DHT22;20426;48.372;10.888;2023-03-22T03:07:47;10.90;99.90
34153;DHT22;20426;48.372;10.888;2023-03-22T03:08:21;10.90;99.90
34153;DHT22;20426;48.372;10.888;2023-03-22T03:08:53;10.90;99.90
34153;DHT22;20426;48.372;10.888;2023-03-22T03:09:28;10.90;99.90
34153;DHT22;20426;48.372;10.888;2023-03-22T03:09:59;10.80;99.90
34153;DHT22;20426;48.372;10.888;2023-03-22T03:10:31;10.80;99.90
34153;DHT22;20426;48.372;10.888;2023-03-22T03:11:02;10.80;99.90
34153;DHT22;20426;48.372;10.888;2023-03-22T03:11:33;10.80;99.90
34153;DHT22;20426;48.372;10.888;2023-03-22T03:12:08;10.80;99.90
34153;DHT22;20426;48.372;10.888;2023-03-22T03:12:43;10.80;99.90
34153;DHT22;20426;48.372;10.888;2023-03-22T03:13:15;10.80;99.90
34153;DHT22;20426;48.372;10.888;2023-03-22T03:13:47;10.80;99.90
34153;DHT22;20426;48.372;10.888;2023-03-22T03:14:30;10.80;99.90
34153;DHT22;20426;48.372;10.888;2023-03-22T03:15:01;10.80;99.90
34153;DHT22;20426;48.372;10.888;2023-03-22T03:15:31;10.80;99.90
34153;DHT22;20426;48.372;10.888;2023-03-22T03:16:03;10.80;99.90
34153;DHT22;20426;48.372;10.888;2023-03-22T03:16:37;10.70;99.90
34153;DHT22;20426;48.372;10.888;2023-03-22T03:18:18;10.70;99.90
34153;DHT22;20426;48.372;10.888;2023-03-22T03:19:14;10.70;99.90
34153;DHT22;20426;48.372;10.888;2023-03-22T03:22:45;10.70;99.90
34153;DHT22;20426;48.372;10.888;2023-03-22T03:23:15;10.60;99.90
34153;DHT22;20426;48.372;10.888;2023-03-22T03:25:07;10.60;99.90
34153;DHT22;20426;48.372;10.888;2023-03-22T03:25:43;10.50;99.90
34153;DHT22;20426;48.372;10.888;2023-03-22T03:27:19;10.50;99.90
34153;DHT22;20426;48.372;10.888;2023-03-22T03:28:34;10.50;99.90
34153;DHT22;20426;48.372;10.888;2023-03-22T03:30:15;10.50;99.90
34153;DHT22;20426;48.372;10.888;2023-03-22T03:30:58;10.50;99.90
34153;DHT22;20426;48.372;10.888;2023-03-22T03:31:33;10.50;99.90
34153;DHT22;20426;48.372;10.888;2023-03-22T03:32:33;10.50;99.90
34153;DHT22;20426;48.372;10.888;2023-03-22T03:33:13;10.50;99.90
34153;DHT22;20426;48.372;10.888;2023-03-22T03:34:47;10.50;99.90
34153;DHT22;20426;48.372;10.888;2023-03-22T03:35:24;10.40;99.90
34153;DHT22;20426;48.372;10.888;2023-03-22T03:35:59;10.40;99.90
34153;DHT22;20426;48.372;10.888;2023-03-22T03:36:33;10.40;99.90
34153;DHT22;20426;48.372;10.888;2023-03-22T03:37:34;10.40;99.90
34153;DHT22;20426;48.372;10.888;2023-03-22T03:38:10;10.40;99.90
34153;DHT22;20426;48.372;10.888;2023-03-22T03:38:46;10.40;99.90
34153;DHT22;20426;48.372;10.888;2023-03-22T03:39:20;10.40;99.90
34153;DHT22;20426;48.372;10.888;2023-03-22T03:39:56;10.40;99.90
34153;DHT22;20426;48.372;10.888;2023-03-22T03:40:38;10.30;99.90
34153;DHT22;20426;48.372;10.888;2023-03-22T03:41:13;10.30;99.90
34153;DHT22;20426;48.372;10.888;2023-03-22T03:41:47;10.30;99.90
34153;DHT22;20426;48.372;10.888;2023-03-22T03:42:20;10.30;99.90
34153;DHT22;20426;48.372;10.888;2023-03-22T03:42:55;10.30;99.90
34153;DHT22;20426;48.372;10.888;2023-03-22T03:43:26;10.30;99.90
34153;DHT22;20426;48.372;10.888;2023-03-22T03:43:58;10.30;99.90
34153;DHT22;20426;48.372;10.888;2023-03-22T03:44:30;10.30;99.90
34153;DHT22;20426;48.372;10.888;2023-03-22T03:45:02;10.30;99.90
34153;DHT22;20426;48.372;10.888;2023-03-22T03:45:35;10.30;99.90
34153;DHT22;20426;48.372;10.888;2023-03-22T03:46:07;10.30;99.90
34153;DHT22;20426;48.372;10.888;2023-03-22T03:46:38;10.30;99.90
34153;DHT22;20426;48.372;10.888;2023-03-22T03:47:09;10.30;99.90
34153;DHT22;20426;48.372;10.888;2023-03-22T03:47:42;10.30;99.90
34153;DHT22;20426;48.372;10.888;2023-03-22T03:48:18;10.20;99.90
34153;DHT22;20426;48.372;10.888;2023-03-22T03:48:51;10.20;99.90
34153;DHT22;20426;48.372;10.888;2023-03-22T03:49:23;10.20;99.90
34153;DHT22;20426;48.372;10.888;2023-03-22T03:49:54;10.30;99.90
34153;DHT22;20426;48.372;10.888;2023-03-22T03:50:25;10.20;99.90
34153;DHT22;20426;48.372;10.888;2023-03-22T03:50:57;10.20;99.90
34153;DHT22;20426;48.372;10.888;2023-03-22T03:51:29;10.20;99.90
34153;DHT22;20426;48.372;10.888;2023-03-22T03:52:00;10.20;99.90
34153;DHT22;20426;48.372;10.888;2023-03-22T03:52:33;10.20;99.90
34153;DHT22;20426;48.372;10.888;2023-03-22T03:53:05;10.20;99.90
34153;DHT22;20426;48.372;10.888;2023-03-22T03:53:35;10.20;99.90
34153;DHT22;20426;48.372;10.888;2023-03-22T03:54:06;10.20;99.90
34153;DHT22;20426;48.372;10.888;2023-03-22T03:54:37;10.20;99.90
34153;DHT22;20426;48.372;10.888;2023-03-22T03:55:08;10.20;99.90
34153;DHT22;20426;48.372;10.888;2023-03-22T03:55:38;10.20;99.90
34153;DHT22;20426;48.372;10.888;2023-03-22T03:56:09;10.20;99.90
34153;DHT22;20426;48.372;10.888;2023-03-22T03:56:40;10.20;99.90
34153;DHT22;20426;48.372;10.888;2023-03-22T03:57:11;10.20;99.90
34153;DHT22;20426;48.372;10.888;2023-03-22T03:57:42;10.20;99.90
34153;DHT22;20426;48.372;10.888;2023-03-22T03:58:12;10.20;99.90
34153;DHT22;20426;48.372;10.888;2023-03-22T03:58:45;10.20;99.90
34153;DHT22;20426;48.372;10.888;2023-03-22T03:59:17;10.20;99.90
34153;DHT22;20426;48.372;10.888;2023-03-22T03:59:48;10.20;99.90
34153;DHT22;20426;48.372;10.888;2023-03-22T04:00:19;10.20;99.90
34153;DHT22;20426;48.372;10.888;2023-03-22T04:00:50;10.10;99.90
34153;DHT22;20426;48.372;10.888;2023-03-22T04:01:21;10.10;99.90
34153;DHT22;20426;48.372;10.888;2023-03-22T04:01:53;10.10;99.90
34153;DHT22;20426;48.372;10.888;2023-03-22T04:02:24;10.10;99.90
34153;DHT22;20426;48.372;10.888;2023-03-22T04:02:55;10.10;99.90
34153;DHT22;20426;48.372;10.888;2023-03-22T04:03:26;10.10;99.90
34153;DHT22;20426;48.372;10.888;2023-03-22T04:03:56;10.10;99.90
34153;DHT22;20426;48.372;10.888;2023-03-22T04:04:28;10.10;99.90
34153;DHT22;20426;48.372;10.888;2023-03-22T04:04:58;10.10;99.90
34153;DHT22;20426;48.372;10.888;2023-03-22T04:05:29;10.10;99.90
34153;DHT22;20426;48.372;10.888;2023-03-22T04:06:00;10.10;99.90
34153;DHT22;20426;48.372;10.888;2023-03-22T04:06:30;10.10;99.90